Time;durP1;ratioP1;P1;durP2;ratioP2;P2;SDS_P1;SDS_P2;PMS_P1;PMS_P2;Temp;Humidity;BMP_temperature;BMP_pressure;BME280_temperature;BME280_humidity;BME280_pressure;Samples;Min_cycle;Max_cycle;Signal;HPM_P1;HPM_P2
2022/11/19 00:02:00;;;;;;;;;;;5.90;99.90;;;;;;5106143;28;19983;-70
2022/11/19 00:04:26;;;;;;;;;;;5.80;99.90;;;;;;5105939;28;20238;-71
2022/11/19 00:06:54;;;;;;;;;;;5.70;99.90;;;;;;5105807;28;19952;-71
2022/11/19 00:09:21;;;;;;;;;;;5.60;99.90;;;;;;5106130;28;19920;-72
2022/11/19 00:14:33;;;;;;;;;;;5.50;99.90;;;;;;5085256;28;19958;-70
2022/11/19 00:17:00;;;;;;;;;;;5.50;99.90;;;;;;5085710;28;19920;-71
2022/11/19 00:19:26;;;;;;;;;;;5.50;99.90;;;;;;5085680;28;20124;-70
2022/11/19 00:21:54;;;;;;;;;;;5.40;99.90;;;;;;5085351;28;20276;-70
2022/11/19 00:24:22;;;;;;;;;;;5.40;99.90;;;;;;5099835;28;19942;-72
2022/11/19 00:26:49;;;;;;;;;;;5.30;99.90;;;;;;5105348;28;19939;-70
2022/11/19 00:29:15;;;;;;;;;;;5.20;99.90;;;;;;5105715;28;19928;-70
2022/11/19 00:31:42;;;;;;;;;;;5.10;99.90;;;;;;5105328;28;19986;-71
2022/11/19 00:34:10;;;;;;;;;;;5.00;99.90;;;;;;5105566;28;19955;-70
2022/11/19 00:36:36;;;;;;;;;;;5.00;99.90;;;;;;5104909;28;20003;-72
2022/11/19 00:39:05;;;;;;;;;;;5.00;99.90;;;;;;5105548;28;19955;-72
2022/11/19 00:41:31;;;;;;;;;;;4.90;99.90;;;;;;5105390;28;19983;-72
2022/11/19 00:43:58;;;;;;;;;;;4.80;99.90;;;;;;5105298;28;19999;-70
2022/11/19 00:46:25;;;;;;;;;;;4.70;99.90;;;;;;5104832;28;19959;-70
2022/11/19 00:48:54;;;;;;;;;;;4.60;99.90;;;;;;5105385;28;19983;-70
2022/11/19 00:51:21;;;;;;;;;;;4.50;99.90;;;;;;5104567;28;19983;-71
2022/11/19 00:53:48;;;;;;;;;;;4.40;99.90;;;;;;5105299;28;19979;-71
2022/11/19 00:56:16;;;;;;;;;;;4.30;99.90;;;;;;5104346;28;19991;-71
2022/11/19 00:58:44;;;;;;;;;;;4.20;99.90;;;;;;5103942;28;19920;-72
2022/11/19 01:01:11;;;;;;;;;;;4.20;99.90;;;;;;5105006;28;19979;-71
2022/11/19 01:03:38;;;;;;;;;;;4.20;99.90;;;;;;5105105;28;19988;-71
2022/11/19 01:06:05;;;;;;;;;;;4.20;99.90;;;;;;5104681;28;19958;-70
2022/11/19 01:08:31;;;;;;;;;;;4.10;99.90;;;;;;5104917;28;19955;-70
2022/11/19 01:11:03;;;;;;;;;;;4.10;99.90;;;;;;5105004;28;19919;-72
2022/11/19 01:13:34;;;;;;;;;;;4.10;99.90;;;;;;5104498;28;20203;-71
2022/11/19 01:16:01;;;;;;;;;;;4.10;99.90;;;;;;5104559;28;19947;-71
2022/11/19 01:18:28;;;;;;;;;;;4.00;99.90;;;;;;5104684;28;20160;-72
2022/11/19 01:20:55;;;;;;;;;;;4.10;99.90;;;;;;5104681;28;19920;-71
2022/11/19 01:23:21;;;;;;;;;;;4.10;99.90;;;;;;5104700;28;19987;-70
2022/11/19 01:25:48;;;;;;;;;;;4.10;99.90;;;;;;5104273;28;19952;-70
2022/11/19 01:28:14;;;;;;;;;;;4.00;99.90;;;;;;5104535;28;19920;-71
2022/11/19 01:30:43;;;;;;;;;;;4.00;99.90;;;;;;5104601;28;19951;-70
2022/11/19 01:33:10;;;;;;;;;;;4.00;99.90;;;;;;5104313;28;19958;-71
2022/11/19 01:35:37;;;;;;;;;;;3.90;99.90;;;;;;5104194;28;19951;-72
2022/11/19 01:38:04;;;;;;;;;;;3.90;99.90;;;;;;5104415;28;20174;-70
2022/11/19 01:40:31;;;;;;;;;;;3.80;99.90;;;;;;5104372;28;19951;-72
2022/11/19 01:42:58;;;;;;;;;;;3.80;99.90;;;;;;5104367;28;20161;-71
2022/11/19 01:45:27;;;;;;;;;;;3.90;99.90;;;;;;5103880;28;19920;-71
2022/11/19 01:47:56;;;;;;;;;;;3.90;99.90;;;;;;5104486;28;19920;-70
2022/11/19 01:50:23;;;;;;;;;;;3.90;99.90;;;;;;5104270;28;19920;-72
2022/11/19 01:52:50;;;;;;;;;;;3.80;99.90;;;;;;5104231;28;19955;-71
2022/11/19 01:55:17;;;;;;;;;;;3.80;99.90;;;;;;5103798;28;19920;-71
2022/11/19 01:57:43;;;;;;;;;;;3.80;99.90;;;;;;5103025;28;19991;-70
2022/11/19 02:00:11;;;;;;;;;;;3.80;99.90;;;;;;5103948;28;19987;-71
2022/11/19 02:02:37;;;;;;;;;;;3.80;99.90;;;;;;5104062;28;20061;-70
2022/11/19 02:05:06;;;;;;;;;;;3.80;99.90;;;;;;5103774;28;20166;-71
2022/11/19 02:07:34;;;;;;;;;;;3.80;99.90;;;;;;5103716;28;19952;-72
2022/11/19 02:10:01;;;;;;;;;;;3.80;99.90;;;;;;5103652;28;19958;-70
2022/11/19 02:12:33;;;;;;;;;;;3.80;99.90;;;;;;5103770;28;20172;-71
2022/11/19 02:15:11;;;;;;;;;;;3.70;99.90;;;;;;5103391;28;19996;-70
2022/11/19 02:17:47;;;;;;;;;;;3.70;99.90;;;;;;5104015;28;20175;-72
2022/11/19 02:20:27;;;;;;;;;;;3.60;99.90;;;;;;5103543;28;20287;-70
2022/11/19 02:23:07;;;;;;;;;;;3.70;99.90;;;;;;5103673;28;20274;-70
2022/11/19 02:25:42;;;;;;;;;;;3.60;99.90;;;;;;5103531;28;19942;-70
2022/11/19 02:28:24;;;;;;;;;;;3.60;99.90;;;;;;5103781;28;19951;-70
2022/11/19 02:30:53;;;;;;;;;;;3.60;99.90;;;;;;5103844;28;19920;-72
2022/11/19 02:33:23;;;;;;;;;;;3.60;99.90;;;;;;5103870;28;20055;-71
2022/11/19 02:35:55;;;;;;;;;;;3.70;99.90;;;;;;5103391;28;20000;-71
2022/11/19 02:38:24;;;;;;;;;;;3.70;99.90;;;;;;5103821;28;19952;-71
2022/11/19 02:40:54;;;;;;;;;;;3.70;99.90;;;;;;5103708;28;19920;-70
2022/11/19 02:43:23;;;;;;;;;;;3.60;99.90;;;;;;5103690;28;20152;-70
2022/11/19 02:45:51;;;;;;;;;;;3.50;99.90;;;;;;5102608;28;20230;-72
2022/11/19 02:48:21;;;;;;;;;;;3.50;99.90;;;;;;5103566;28;19959;-70
2022/11/19 02:50:49;;;;;;;;;;;3.40;99.90;;;;;;5089722;28;19954;-71
2022/11/19 02:53:15;;;;;;;;;;;3.40;99.90;;;;;;5082454;28;19959;-72
2022/11/19 02:56:09;;;;;;;;;;;3.40;99.90;;;;;;5082900;28;19979;-71
2022/11/19 03:06:44;;;;;;;;;;;3.30;99.90;;;;;;5082742;28;19927;-70
2022/11/19 03:09:12;;;;;;;;;;;3.30;99.90;;;;;;5082841;28;20280;-70
2022/11/19 03:11:38;;;;;;;;;;;3.20;99.90;;;;;;5083130;28;19952;-70
2022/11/19 03:16:54;;;;;;;;;;;3.10;99.90;;;;;;5082640;28;19970;-70
2022/11/19 03:19:31;;;;;;;;;;;3.00;99.90;;;;;;5083157;28;19962;-70
2022/11/19 03:21:59;;;;;;;;;;;3.00;99.90;;;;;;5086616;28;19924;-71
2022/11/19 03:24:28;;;;;;;;;;;3.00;99.90;;;;;;5086642;28;19920;-70
2022/11/19 03:26:58;;;;;;;;;;;2.90;99.90;;;;;;5086492;28;19924;-71
2022/11/19 03:29:26;;;;;;;;;;;2.90;99.90;;;;;;5086655;28;19988;-70
2022/11/19 03:31:55;;;;;;;;;;;2.90;99.90;;;;;;5086656;28;19963;-71
2022/11/19 03:34:23;;;;;;;;;;;2.90;99.90;;;;;;5086342;28;19956;-71
2022/11/19 03:36:52;;;;;;;;;;;2.90;99.90;;;;;;5086004;28;19983;-71
2022/11/19 03:39:20;;;;;;;;;;;2.90;99.90;;;;;;5086201;28;19952;-70
2022/11/19 03:41:48;;;;;;;;;;;2.90;99.90;;;;;;5085933;28;19955;-71
2022/11/19 03:44:18;;;;;;;;;;;2.80;99.90;;;;;;5086112;28;20156;-70
2022/11/19 03:46:46;;;;;;;;;;;2.80;99.90;;;;;;5085027;28;20255;-71
2022/11/19 03:49:14;;;;;;;;;;;2.70;99.90;;;;;;5086243;28;19963;-70
2022/11/19 03:51:43;;;;;;;;;;;2.70;99.90;;;;;;5084969;28;20170;-70
2022/11/19 03:54:11;;;;;;;;;;;2.70;99.90;;;;;;5092982;28;20180;-72
2022/11/19 03:56:39;;;;;;;;;;;2.70;99.90;;;;;;5105659;28;20007;-70
2022/11/19 03:59:06;;;;;;;;;;;2.70;99.90;;;;;;5105786;28;19956;-71
2022/11/19 04:01:34;;;;;;;;;;;2.70;99.90;;;;;;5106071;28;19980;-71
2022/11/19 04:06:44;;;;;;;;;;;2.80;99.90;;;;;;5105489;28;19927;-70
2022/11/19 04:09:12;;;;;;;;;;;2.80;99.90;;;;;;5105875;28;19984;-70
2022/11/19 04:11:39;;;;;;;;;;;2.80;99.90;;;;;;5106045;28;19951;-71
2022/11/19 04:14:06;;;;;;;;;;;2.80;99.90;;;;;;5105664;28;19979;-71
2022/11/19 04:16:33;;;;;;;;;;;2.80;99.90;;;;;;5105283;28;20255;-70
2022/11/19 04:18:59;;;;;;;;;;;2.80;99.90;;;;;;5104643;28;20002;-72
2022/11/19 04:21:26;;;;;;;;;;;2.80;99.90;;;;;;5085233;28;19962;-71
2022/11/19 04:23:52;;;;;;;;;;;2.70;99.90;;;;;;5085378;28;19999;-72
2022/11/19 04:26:20;;;;;;;;;;;2.70;99.90;;;;;;5085075;28;19983;-70
2022/11/19 04:28:47;;;;;;;;;;;2.70;99.90;;;;;;5085033;28;19987;-70
2022/11/19 04:31:14;;;;;;;;;;;2.70;99.90;;;;;;5085291;28;19987;-71
2022/11/19 04:33:40;;;;;;;;;;;2.60;99.90;;;;;;5085265;28;19920;-70
2022/11/19 04:36:07;;;;;;;;;;;2.60;99.90;;;;;;5084532;28;20175;-70
2022/11/19 04:38:34;;;;;;;;;;;2.50;99.90;;;;;;5084769;28;19951;-70
2022/11/19 04:41:01;;;;;;;;;;;2.50;99.90;;;;;;5085057;28;20146;-70
2022/11/19 04:43:28;;;;;;;;;;;2.50;99.90;;;;;;5084773;28;19956;-71
2022/11/19 04:45:55;;;;;;;;;;;2.50;99.90;;;;;;5084129;28;19988;-70
2022/11/19 04:48:22;;;;;;;;;;;2.50;99.90;;;;;;5084917;28;20031;-71
2022/11/19 04:50:48;;;;;;;;;;;2.50;99.90;;;;;;5084782;28;19955;-71
2022/11/19 04:53:15;;;;;;;;;;;2.50;99.90;;;;;;5083728;28;20157;-72
2022/11/19 04:55:42;;;;;;;;;;;2.50;99.90;;;;;;5084195;28;20254;-71
2022/11/19 04:58:08;;;;;;;;;;;2.40;99.90;;;;;;5084700;28;19988;-70
2022/11/19 05:00:36;;;;;;;;;;;2.40;99.90;;;;;;5084710;28;20175;-71
2022/11/19 05:03:03;;;;;;;;;;;2.40;99.90;;;;;;5084705;28;19979;-72
2022/11/19 05:05:30;;;;;;;;;;;2.40;99.90;;;;;;5083889;28;20284;-72
2022/11/19 05:07:56;;;;;;;;;;;2.40;99.90;;;;;;5084449;28;19984;-70
2022/11/19 05:10:23;;;;;;;;;;;2.40;99.90;;;;;;5084302;28;19988;-70
2022/11/19 05:12:49;;;;;;;;;;;2.40;99.90;;;;;;5084112;28;20183;-70
2022/11/19 05:15:16;;;;;;;;;;;2.40;99.90;;;;;;5084104;28;19983;-72
2022/11/19 05:17:44;;;;;;;;;;;2.40;99.90;;;;;;5084363;28;19979;-72
2022/11/19 05:20:11;;;;;;;;;;;2.40;99.90;;;;;;5085158;28;19964;-70
2022/11/19 05:22:38;;;;;;;;;;;2.40;99.90;;;;;;5085446;28;19959;-70
2022/11/19 05:25:05;;;;;;;;;;;2.40;99.90;;;;;;5084790;28;20258;-72
2022/11/19 05:27:31;;;;;;;;;;;2.50;99.90;;;;;;5084655;28;20257;-71
2022/11/19 05:29:58;;;;;;;;;;;2.50;99.90;;;;;;5084376;28;19962;-70
2022/11/19 05:32:25;;;;;;;;;;;2.50;99.90;;;;;;5084236;28;19962;-71
2022/11/19 05:34:53;;;;;;;;;;;2.50;99.90;;;;;;5083811;28;19995;-70
2022/11/19 05:37:19;;;;;;;;;;;2.50;99.90;;;;;;5083903;28;19952;-69
2022/11/19 05:39:46;;;;;;;;;;;2.50;99.90;;;;;;5083706;28;19983;-72
2022/11/19 05:42:12;;;;;;;;;;;2.50;99.90;;;;;;5084096;28;19983;-71
2022/11/19 05:44:39;;;;;;;;;;;2.50;99.90;;;;;;5083390;28;20137;-71
2022/11/19 05:47:07;;;;;;;;;;;2.50;99.90;;;;;;5083739;28;19987;-70
2022/11/19 05:49:33;;;;;;;;;;;2.50;99.90;;;;;;5083787;28;19983;-72
2022/11/19 05:52:01;;;;;;;;;;;2.50;99.90;;;;;;5082850;28;19979;-71
2022/11/19 05:54:28;;;;;;;;;;;2.50;99.90;;;;;;5083857;28;19955;-72
2022/11/19 05:56:54;;;;;;;;;;;2.50;99.90;;;;;;5083503;28;19967;-72
2022/11/19 05:59:21;;;;;;;;;;;2.50;99.90;;;;;;5083944;28;19956;-72
2022/11/19 06:01:48;;;;;;;;;;;2.50;99.90;;;;;;5083937;28;19963;-70
2022/11/19 06:04:14;;;;;;;;;;;2.50;99.90;;;;;;5083934;28;19983;-71
2022/11/19 06:06:41;;;;;;;;;;;2.50;99.90;;;;;;5083487;28;19991;-70
2022/11/19 06:09:09;;;;;;;;;;;2.50;99.90;;;;;;5083814;28;20176;-70
2022/11/19 06:11:49;;;;;;;;;;;2.60;99.90;;;;;;5083760;28;19943;-71
2022/11/19 06:14:15;;;;;;;;;;;2.50;99.90;;;;;;5083382;28;19920;-70
2022/11/19 06:16:42;;;;;;;;;;;2.50;99.90;;;;;;5083251;28;19952;-70
2022/11/19 06:19:09;;;;;;;;;;;2.50;99.90;;;;;;5083285;28;19983;-70
2022/11/19 06:21:35;;;;;;;;;;;2.50;99.90;;;;;;5083242;28;19984;-71
2022/11/19 06:24:02;;;;;;;;;;;2.50;99.90;;;;;;5083446;28;19987;-70
2022/11/19 06:26:30;;;;;;;;;;;2.60;99.90;;;;;;5083177;28;20164;-72
2022/11/19 06:28:57;;;;;;;;;;;2.60;99.90;;;;;;5083461;28;20157;-70
2022/11/19 06:31:23;;;;;;;;;;;2.60;99.90;;;;;;5083456;28;19983;-71
2022/11/19 06:33:52;;;;;;;;;;;2.60;99.90;;;;;;5083380;28;19920;-70
2022/11/19 06:36:18;;;;;;;;;;;2.70;99.90;;;;;;5082727;28;19920;-71
2022/11/19 06:38:45;;;;;;;;;;;2.70;99.90;;;;;;5083335;28;19963;-70
2022/11/19 06:41:12;;;;;;;;;;;2.70;99.90;;;;;;5083106;28;19921;-70
2022/11/19 06:43:40;;;;;;;;;;;2.70;99.90;;;;;;5083066;28;20187;-71
2022/11/19 06:46:07;;;;;;;;;;;2.70;99.90;;;;;;5082637;28;19983;-70
2022/11/19 06:48:33;;;;;;;;;;;2.80;99.90;;;;;;5083202;28;20147;-68
2022/11/19 06:51:01;;;;;;;;;;;2.80;99.90;;;;;;5082441;28;19983;-72
2022/11/19 06:53:27;;;;;;;;;;;2.70;99.90;;;;;;5083244;28;19921;-70
2022/11/19 06:55:57;;;;;;;;;;;2.70;99.90;;;;;;5084981;28;20157;-70
2022/11/19 06:58:24;;;;;;;;;;;2.70;99.90;;;;;;5085948;28;19956;-70
2022/11/19 07:00:52;;;;;;;;;;;2.70;99.90;;;;;;5086144;28;19963;-71
2022/11/19 07:03:19;;;;;;;;;;;2.70;99.90;;;;;;5086729;28;20267;-71
2022/11/19 07:05:46;;;;;;;;;;;2.70;99.90;;;;;;5086239;28;19983;-71
2022/11/19 07:08:13;;;;;;;;;;;2.70;99.90;;;;;;5086959;28;20152;-72
2022/11/19 07:10:40;;;;;;;;;;;2.70;99.90;;;;;;5086756;28;20279;-71
2022/11/19 07:13:06;;;;;;;;;;;2.70;99.90;;;;;;5086735;28;20247;-72
2022/11/19 07:15:33;;;;;;;;;;;2.70;99.90;;;;;;5086276;28;20169;-71
2022/11/19 07:18:01;;;;;;;;;;;2.70;99.90;;;;;;5086364;28;19928;-70
2022/11/19 07:20:28;;;;;;;;;;;2.70;99.90;;;;;;5086733;28;19956;-70
2022/11/19 07:22:55;;;;;;;;;;;2.70;99.90;;;;;;5086423;28;19927;-71
2022/11/19 07:25:21;;;;;;;;;;;2.70;99.90;;;;;;5086408;28;19995;-71
2022/11/19 07:27:48;;;;;;;;;;;2.70;99.90;;;;;;5086742;28;19983;-72
2022/11/19 07:30:15;;;;;;;;;;;2.70;99.90;;;;;;5086684;28;20160;-71
2022/11/19 07:32:42;;;;;;;;;;;2.70;99.90;;;;;;5086382;28;19927;-71
2022/11/19 07:35:10;;;;;;;;;;;2.70;99.90;;;;;;5086156;28;19956;-71
2022/11/19 07:37:37;;;;;;;;;;;2.60;99.90;;;;;;5086174;28;19928;-71
2022/11/19 07:40:04;;;;;;;;;;;2.60;99.90;;;;;;5086390;28;19983;-71
2022/11/19 07:42:48;;;;;;;;;;;2.50;99.90;;;;;;5086135;28;19955;-73
2022/11/19 07:45:15;;;;;;;;;;;2.60;99.90;;;;;;5086071;28;19991;-72
2022/11/19 07:47:41;;;;;;;;;;;2.60;99.90;;;;;;5086200;28;19928;-70
2022/11/19 07:50:10;;;;;;;;;;;2.60;99.90;;;;;;5086361;28;19920;-70
2022/11/19 07:52:37;;;;;;;;;;;2.60;99.90;;;;;;5085176;28;19920;-70
2022/11/19 07:55:04;;;;;;;;;;;2.60;99.90;;;;;;5085931;28;19928;-70
2022/11/19 07:57:30;;;;;;;;;;;2.60;99.90;;;;;;5085829;28;19971;-69
2022/11/19 07:59:57;;;;;;;;;;;2.60;99.90;;;;;;5086150;28;19955;-70
2022/11/19 08:02:24;;;;;;;;;;;2.50;99.90;;;;;;5086025;28;19955;-70
2022/11/19 08:04:50;;;;;;;;;;;2.50;99.90;;;;;;5085589;28;19920;-70
2022/11/19 08:07:18;;;;;;;;;;;2.40;99.90;;;;;;5085628;28;19943;-71
2022/11/19 08:09:45;;;;;;;;;;;2.40;99.90;;;;;;5103620;28;19955;-69
2022/11/19 08:12:11;;;;;;;;;;;2.40;99.90;;;;;;5106102;28;19983;-70
2022/11/19 08:14:38;;;;;;;;;;;2.40;99.90;;;;;;5105520;28;19983;-68
2022/11/19 08:19:49;;;;;;;;;;;2.30;99.90;;;;;;5105560;28;20233;-69
2022/11/19 08:22:15;;;;;;;;;;;2.20;99.90;;;;;;5105889;28;19995;-70
2022/11/19 08:24:44;;;;;;;;;;;2.10;99.90;;;;;;5105347;28;19991;-71
2022/11/19 08:27:11;;;;;;;;;;;2.10;99.90;;;;;;5105620;28;20189;-70
2022/11/19 08:29:38;;;;;;;;;;;2.10;99.90;;;;;;5105519;28;19942;-70
2022/11/19 08:32:06;;;;;;;;;;;2.20;99.90;;;;;;5103959;28;19920;-71
2022/11/19 08:34:33;;;;;;;;;;;2.10;99.90;;;;;;5105498;28;19987;-71
2022/11/19 08:37:00;;;;;;;;;;;2.10;99.90;;;;;;5104835;28;19995;-71
2022/11/19 08:39:26;;;;;;;;;;;2.20;99.90;;;;;;5105101;28;19985;-70
2022/11/19 08:44:38;;;;;;;;;;;2.20;99.90;;;;;;5084891;28;19990;-71
2022/11/19 08:47:05;;;;;;;;;;;2.10;99.90;;;;;;5084891;28;19983;-70
2022/11/19 08:49:32;;;;;;;;;;;2.10;99.90;;;;;;5085063;28;19996;-70
2022/11/19 08:51:58;;;;;;;;;;;2.10;99.90;;;;;;5083989;28;20167;-70
2022/11/19 08:54:25;;;;;;;;;;;2.10;99.90;;;;;;5091266;28;19951;-70
2022/11/19 08:56:53;;;;;;;;;;;2.10;99.90;;;;;;5104150;28;19983;-70
2022/11/19 08:59:21;;;;;;;;;;;2.10;99.90;;;;;;5104890;28;20211;-71
2022/11/19 09:01:48;;;;;;;;;;;2.10;99.90;;;;;;5104833;28;19955;-71
2022/11/19 09:04:15;;;;;;;;;;;2.10;99.90;;;;;;5105071;28;19943;-71
2022/11/19 09:06:41;;;;;;;;;;;2.10;99.90;;;;;;5104737;28;20250;-70
2022/11/19 09:09:08;;;;;;;;;;;2.10;99.90;;;;;;5105107;28;19956;-70
2022/11/19 09:11:35;;;;;;;;;;;2.10;99.90;;;;;;5105031;28;19947;-70
2022/11/19 09:14:02;;;;;;;;;;;2.10;99.90;;;;;;5104595;28;19927;-71
2022/11/19 09:16:30;;;;;;;;;;;2.10;99.90;;;;;;5104627;28;19974;-70
2022/11/19 09:18:56;;;;;;;;;;;2.10;99.90;;;;;;5104045;28;19956;-70
2022/11/19 09:21:23;;;;;;;;;;;2.10;99.90;;;;;;5105788;28;20253;-70
2022/11/19 09:23:50;;;;;;;;;;;2.10;99.90;;;;;;5104342;28;19990;-70
2022/11/19 09:26:17;;;;;;;;;;;2.10;99.90;;;;;;5091846;28;19983;-71
2022/11/19 09:28:44;;;;;;;;;;;2.10;99.90;;;;;;5104576;28;20006;-71
2022/11/19 09:31:12;;;;;;;;;;;2.10;99.90;;;;;;5104164;28;19987;-71
2022/11/19 09:33:41;;;;;;;;;;;2.10;99.90;;;;;;5103298;28;19956;-70
2022/11/19 09:36:09;;;;;;;;;;;2.10;99.90;;;;;;5103660;28;19920;-70
2022/11/19 09:38:35;;;;;;;;;;;2.00;99.90;;;;;;5104250;28;19999;-71
2022/11/19 09:41:13;;;;;;;;;;;2.10;99.90;;;;;;5104463;28;19951;-71
2022/11/19 09:43:42;;;;;;;;;;;2.00;99.90;;;;;;5104512;28;19958;-70
2022/11/19 09:46:10;;;;;;;;;;;2.00;99.90;;;;;;5102961;28;19948;-71
2022/11/19 09:48:37;;;;;;;;;;;2.00;99.90;;;;;;5102365;28;19951;-71
2022/11/19 09:51:09;;;;;;;;;;;2.00;99.90;;;;;;5103854;28;19983;-71
2022/11/19 09:53:39;;;;;;;;;;;2.10;99.90;;;;;;5108045;28;19920;-70
2022/11/19 09:56:07;;;;;;;;;;;2.00;99.90;;;;;;5104039;28;19987;-70
2022/11/19 09:58:34;;;;;;;;;;;2.00;99.90;;;;;;5098769;28;19956;-70
2022/11/19 10:01:01;;;;;;;;;;;2.10;99.90;;;;;;5100938;28;19986;-70
2022/11/19 10:03:28;;;;;;;;;;;2.10;99.90;;;;;;5104212;28;20187;-70
2022/11/19 10:05:59;;;;;;;;;;;2.10;99.90;;;;;;5103544;28;19987;-71
2022/11/19 10:08:35;;;;;;;;;;;2.20;99.90;;;;;;5104111;28;19955;-71
2022/11/19 10:11:11;;;;;;;;;;;2.20;99.90;;;;;;5103881;28;20220;-70
2022/11/19 10:13:47;;;;;;;;;;;2.20;99.90;;;;;;5103396;28;20164;-70
2022/11/19 10:18:47;;;;;;;;;;;2.30;99.90;;;;;;5006965;28;19929;-68
2022/11/19 10:21:17;;;;;;;;;;;2.40;99.90;;;;;;5023495;28;19989;-68
2022/11/19 10:23:51;;;;;;;;;;;2.40;99.90;;;;;;5023756;28;19992;-67
2022/11/19 10:26:19;;;;;;;;;;;2.40;99.90;;;;;;5023369;28;19928;-69
2022/11/19 10:28:48;;;;;;;;;;;2.40;99.90;;;;;;5023824;28;19956;-69
2022/11/19 10:31:16;;;;;;;;;;;2.40;99.90;;;;;;5026993;28;20256;-68
2022/11/19 10:34:04;;;;;;;;;;;2.40;99.90;;;;;;5027229;28;19952;-69
2022/11/19 10:36:33;;;;;;;;;;;2.30;99.90;;;;;;5008021;28;20153;-69
2022/11/19 10:39:03;;;;;;;;;;;2.40;99.90;;;;;;5019754;28;19921;-69
2022/11/19 10:41:49;;;;;;;;;;;2.40;99.90;;;;;;5026294;28;19941;-71
2022/11/19 10:44:38;;;;;;;;;;;2.40;99.90;;;;;;5027942;28;20366;-68
2022/11/19 10:47:06;;;;;;;;;;;2.40;99.90;;;;;;5027241;28;19922;-71
2022/11/19 10:49:36;;;;;;;;;;;2.50;99.90;;;;;;5027873;28;20179;-70
2022/11/19 10:52:03;;;;;;;;;;;2.50;99.90;;;;;;5027617;28;20176;-68
2022/11/19 10:54:32;;;;;;;;;;;2.50;99.90;;;;;;5027664;28;19944;-68
2022/11/19 10:56:59;;;;;;;;;;;2.50;99.90;;;;;;5027254;28;19959;-68
2022/11/19 10:59:26;;;;;;;;;;;2.40;99.90;;;;;;5026268;28;20208;-68
2022/11/19 11:01:55;;;;;;;;;;;2.40;99.90;;;;;;5027949;28;19921;-68
2022/11/19 11:04:23;;;;;;;;;;;2.40;99.90;;;;;;5029493;28;19980;-69
2022/11/19 11:06:51;;;;;;;;;;;2.40;99.90;;;;;;5023056;28;19981;-69
2022/11/19 11:09:27;;;;;;;;;;;2.40;99.90;;;;;;5026147;28;19925;-69
2022/11/19 11:17:27;;;;;;;;;;;2.40;99.90;;;;;;5025855;28;19917;-69
2022/11/19 11:19:58;;;;;;;;;;;2.30;99.90;;;;;;5027109;28;19992;-69
2022/11/19 11:22:25;;;;;;;;;;;2.30;99.90;;;;;;5027185;28;19975;-69
2022/11/19 11:24:52;;;;;;;;;;;2.30;99.90;;;;;;5026563;28;19988;-69
2022/11/19 11:27:20;;;;;;;;;;;2.30;99.90;;;;;;5026999;28;19992;-69
2022/11/19 11:29:47;;;;;;;;;;;2.20;99.90;;;;;;5026689;28;19993;-70
2022/11/19 11:32:26;;;;;;;;;;;2.30;99.90;;;;;;5026364;28;19957;-69
2022/11/19 11:34:53;;;;;;;;;;;2.40;99.90;;;;;;5011218;28;19956;-69
2022/11/19 11:37:20;;;;;;;;;;;2.40;99.90;;;;;;5019300;28;19957;-69
2022/11/19 11:39:49;;;;;;;;;;;2.40;99.90;;;;;;5026727;28;19925;-69
2022/11/19 11:42:17;;;;;;;;;;;2.40;99.90;;;;;;5025798;28;19956;-69
2022/11/19 11:44:50;;;;;;;;;;;2.40;99.90;;;;;;5026451;28;19980;-68
2022/11/19 11:47:18;;;;;;;;;;;2.40;99.90;;;;;;5026415;28;19964;-69
2022/11/19 11:49:45;;;;;;;;;;;2.30;99.90;;;;;;5026665;28;20181;-69
2022/11/19 11:52:20;;;;;;;;;;;2.30;99.90;;;;;;5026430;28;20247;-69
2022/11/19 11:54:54;;;;;;;;;;;2.30;99.90;;;;;;5026397;28;19988;-68
2022/11/19 11:57:24;;;;;;;;;;;2.20;99.90;;;;;;5025836;28;19956;-70
2022/11/19 11:59:53;;;;;;;;;;;2.20;99.90;;;;;;5026603;28;19957;-70
2022/11/19 12:02:25;;;;;;;;;;;2.30;99.90;;;;;;5026311;28;19984;-70
2022/11/19 12:04:56;;;;;;;;;;;2.30;99.90;;;;;;5024924;28;19926;-71
2022/11/19 12:07:29;;;;;;;;;;;2.30;99.90;;;;;;5023649;28;19953;-70
2022/11/19 12:10:03;;;;;;;;;;;2.30;99.90;;;;;;5026020;28;19921;-70
2022/11/19 12:12:34;;;;;;;;;;;2.30;99.90;;;;;;5019929;28;19926;-69
2022/11/19 12:15:17;;;;;;;;;;;2.30;99.90;;;;;;5019070;28;20169;-69
2022/11/19 12:17:48;;;;;;;;;;;2.30;99.90;;;;;;5025973;28;19980;-67
2022/11/19 12:20:24;;;;;;;;;;;2.30;99.90;;;;;;5028546;28;19997;-67
2022/11/19 12:23:07;;;;;;;;;;;2.30;99.90;;;;;;5025844;28;19921;-68
2022/11/19 12:25:36;;;;;;;;;;;2.30;99.90;;;;;;5025687;28;19992;-69
2022/11/19 12:28:14;;;;;;;;;;;2.30;99.90;;;;;;5009702;28;20124;-70
2022/11/19 12:30:45;;;;;;;;;;;2.30;99.90;;;;;;5019346;28;19993;-69
2022/11/19 12:33:20;;;;;;;;;;;2.30;99.90;;;;;;5024967;28;19992;-69
2022/11/19 12:35:52;;;;;;;;;;;2.20;99.90;;;;;;5025305;28;20149;-69
2022/11/19 12:38:40;;;;;;;;;;;2.20;99.90;;;;;;5025352;28;20151;-70
2022/11/19 12:41:18;;;;;;;;;;;2.20;99.90;;;;;;5014696;28;19981;-71
2022/11/19 12:43:56;;;;;;;;;;;2.20;99.90;;;;;;5012940;28;20183;-72
2022/11/19 12:46:36;;;;;;;;;;;2.20;99.90;;;;;;5024724;28;19987;-69
2022/11/19 12:52:11;;;;;;;;;;;2.20;99.90;;;;;;5022696;28;19959;-69
2022/11/19 12:54:45;;;;;;;;;;;2.30;99.90;;;;;;5005120;28;19961;-70
2022/11/19 12:57:21;;;;;;;;;;;2.30;99.90;;;;;;5017756;28;19922;-71
2022/11/19 12:59:53;;;;;;;;;;;2.30;99.90;;;;;;5025736;28;19992;-70
2022/11/19 13:02:36;;;;;;;;;;;2.30;99.90;;;;;;5024871;28;19948;-69
2022/11/19 13:05:06;;;;;;;;;;;2.40;99.90;;;;;;5025177;28;19922;-69
2022/11/19 13:07:35;;;;;;;;;;;2.30;99.90;;;;;;5024666;28;20213;-69
2022/11/19 13:10:04;;;;;;;;;;;2.40;99.90;;;;;;5024992;28;19963;-70
2022/11/19 13:12:33;;;;;;;;;;;2.40;99.90;;;;;;5024945;28;19984;-69
2022/11/19 13:15:02;;;;;;;;;;;2.40;99.90;;;;;;5024515;28;19941;-69
2022/11/19 13:17:30;;;;;;;;;;;2.40;99.90;;;;;;5024971;28;19952;-69
2022/11/19 13:20:03;;;;;;;;;;;2.40;99.90;;;;;;5024101;28;19956;-69
2022/11/19 13:22:32;;;;;;;;;;;2.30;99.90;;;;;;5024845;28;19953;-69
2022/11/19 13:25:01;;;;;;;;;;;2.30;99.90;;;;;;5024815;28;19984;-69
2022/11/19 13:27:28;;;;;;;;;;;2.30;99.90;;;;;;5024935;28;19949;-69
2022/11/19 13:29:56;;;;;;;;;;;2.30;99.90;;;;;;5024931;28;19925;-71
2022/11/19 13:32:25;;;;;;;;;;;2.30;99.90;;;;;;5024682;28;19953;-69
2022/11/19 13:35:04;;;;;;;;;;;2.20;99.90;;;;;;5024604;28;19999;-69
2022/11/19 13:37:39;;;;;;;;;;;2.20;99.90;;;;;;5024521;28;19988;-68
2022/11/19 13:40:10;;;;;;;;;;;2.20;99.90;;;;;;5022130;28;19953;-68
2022/11/19 13:45:23;;;;;;;;;;;2.20;99.90;;;;;;5003961;28;19924;-72
2022/11/19 13:47:52;;;;;;;;;;;2.20;99.90;;;;;;5004734;28;19985;-70
2022/11/19 13:50:22;;;;;;;;;;;2.10;99.90;;;;;;5023458;28;19984;-71
2022/11/19 13:52:57;;;;;;;;;;;2.10;99.90;;;;;;5023422;28;19988;-69
2022/11/19 13:55:46;;;;;;;;;;;2.10;99.90;;;;;;5023381;28;20260;-68
2022/11/19 13:58:18;;;;;;;;;;;2.10;99.90;;;;;;5024212;28;19981;-70
2022/11/19 14:00:59;;;;;;;;;;;2.00;99.90;;;;;;5023898;28;20156;-68
2022/11/19 14:03:31;;;;;;;;;;;2.00;99.90;;;;;;5023789;28;20143;-68
2022/11/19 14:06:13;;;;;;;;;;;2.00;99.90;;;;;;5024008;28;19956;-69
2022/11/19 14:08:47;;;;;;;;;;;2.00;99.90;;;;;;5023952;28;19988;-69
2022/11/19 14:11:20;;;;;;;;;;;2.10;99.90;;;;;;5023949;28;19953;-68
2022/11/19 14:13:56;;;;;;;;;;;2.00;99.90;;;;;;5024203;28;19988;-69
2022/11/19 14:27:41;;;;;;;;;;;1.90;99.90;;;;;;5023932;28;20112;-68
2022/11/19 14:30:09;;;;;;;;;;;1.90;99.90;;;;;;5024252;28;19960;-69
2022/11/19 14:32:43;;;;;;;;;;;1.90;99.90;;;;;;5024098;28;19964;-69
2022/11/19 14:35:28;;;;;;;;;;;2.00;99.90;;;;;;5023865;28;20176;-69
2022/11/19 14:37:57;;;;;;;;;;;1.90;99.90;;;;;;5023999;28;20168;-68
2022/11/19 14:40:26;;;;;;;;;;;1.90;99.90;;;;;;5023997;28;20014;-68
2022/11/19 14:46:14;;;;;;;;;;;1.80;99.90;;;;;;5023549;28;19916;-68
2022/11/19 14:48:48;;;;;;;;;;;1.80;99.90;;;;;;5016719;28;20423;-68
2022/11/19 14:51:16;;;;;;;;;;;1.80;99.90;;;;;;5023688;28;19988;-69
2022/11/19 14:54:03;;;;;;;;;;;1.80;99.90;;;;;;5023119;28;19921;-70
2022/11/19 14:56:31;;;;;;;;;;;1.90;99.90;;;;;;5023392;28;20261;-69
2022/11/19 14:59:01;;;;;;;;;;;1.90;99.90;;;;;;5023706;28;19960;-69
2022/11/19 15:01:28;;;;;;;;;;;1.90;99.90;;;;;;5023510;28;20347;-69
2022/11/19 15:03:57;;;;;;;;;;;1.90;99.90;;;;;;5023759;28;19999;-69
2022/11/19 15:06:24;;;;;;;;;;;1.90;99.90;;;;;;5023475;28;19989;-69
2022/11/19 15:08:52;;;;;;;;;;;1.90;99.90;;;;;;5023542;28;20408;-69
2022/11/19 15:11:20;;;;;;;;;;;1.90;99.90;;;;;;5023584;28;20256;-70
2022/11/19 15:14:07;;;;;;;;;;;1.90;99.90;;;;;;5023388;28;19957;-70
2022/11/19 15:16:35;;;;;;;;;;;1.90;99.90;;;;;;5024205;28;19922;-69
2022/11/19 15:19:14;;;;;;;;;;;1.90;99.90;;;;;;5027300;28;20185;-70
2022/11/19 15:21:55;;;;;;;;;;;1.90;99.90;;;;;;5027064;28;19996;-69
2022/11/19 15:24:30;;;;;;;;;;;1.90;99.90;;;;;;5026331;28;19925;-70
2022/11/19 15:27:01;;;;;;;;;;;1.90;99.90;;;;;;5026949;28;20019;-69
2022/11/19 15:29:38;;;;;;;;;;;1.90;99.90;;;;;;5027155;28;19988;-69
2022/11/19 15:32:14;;;;;;;;;;;1.90;99.90;;;;;;5024342;28;19988;-69
2022/11/19 15:34:55;;;;;;;;;;;1.90;99.90;;;;;;5025676;28;19971;-70